createdAt,value
2023-02-20T00:00:37.031Z,9.00
2023-02-20T00:03:04.582Z,9.10
2023-02-20T00:05:31.462Z,9.10
2023-02-20T00:07:58.991Z,9.10
2023-02-20T00:10:26.084Z,9.10
2023-02-20T00:12:53.745Z,9.10
2023-02-20T00:15:21.760Z,9.10
2023-02-20T00:17:49.221Z,9.10
2023-02-20T00:20:19.698Z,9.20
2023-02-20T00:22:46.490Z,9.10
2023-02-20T00:25:15.043Z,9.10
2023-02-20T00:27:43.385Z,9.10
2023-02-20T00:30:21.906Z,9.10
2023-02-20T00:32:50.122Z,9.10
2023-02-20T00:35:19.497Z,9.00
2023-02-20T00:37:47.533Z,8.90
2023-02-20T00:40:15.596Z,8.90
2023-02-20T00:42:42.371Z,8.90
2023-02-20T00:45:10.293Z,8.90
2023-02-20T00:47:37.110Z,8.90
2023-02-20T00:50:05.286Z,8.80
2023-02-20T00:52:32.076Z,8.80
2023-02-20T00:54:58.868Z,8.80
2023-02-20T00:57:25.668Z,8.80
2023-02-20T00:59:53.209Z,8.70
2023-02-20T01:02:20.062Z,8.90
2023-02-20T01:04:46.865Z,9.00
2023-02-20T01:07:13.664Z,8.90
2023-02-20T01:09:40.368Z,8.90
2023-02-20T01:12:07.106Z,8.90
2023-02-20T01:14:34.350Z,8.90
2023-02-20T01:17:01.060Z,9.00
2023-02-20T01:19:27.987Z,8.90
2023-02-20T01:21:54.951Z,8.90
2023-02-20T01:24:21.764Z,8.90
2023-02-20T01:26:49.603Z,8.80
2023-02-20T01:29:17.120Z,8.90
2023-02-20T01:31:51.702Z,8.90
2023-02-20T01:34:20.066Z,8.80
2023-02-20T01:36:52.501Z,8.80
2023-02-20T01:39:21.245Z,8.80
2023-02-20T01:41:50.823Z,8.90
2023-02-20T01:44:23.644Z,8.90
2023-02-20T01:47:01.350Z,8.90
2023-02-20T01:49:43.014Z,9.00
2023-02-20T01:52:19.161Z,8.90
2023-02-20T01:54:51.600Z,8.80
2023-02-20T01:57:23.949Z,8.80
2023-02-20T01:59:52.805Z,8.80
2023-02-20T02:02:20.263Z,8.80
2023-02-20T02:04:48.775Z,8.90
2023-02-20T02:07:15.981Z,8.90
2023-02-20T02:10:00.087Z,8.90
2023-02-20T02:12:26.989Z,8.90
2023-02-20T02:14:53.990Z,8.80
2023-02-20T02:17:38.676Z,8.80
2023-02-20T02:20:20.683Z,8.80
2023-02-20T02:23:25.098Z,8.90
2023-02-20T02:26:16.899Z,8.90
2023-02-20T02:29:05.273Z,8.90
2023-02-20T02:31:57.118Z,8.90
2023-02-20T02:34:44.001Z,9.00
2023-02-20T02:37:42.846Z,9.00
2023-02-20T02:40:25.028Z,9.00
2023-02-20T02:43:20.005Z,9.00
2023-02-20T02:46:01.443Z,9.00
2023-02-20T02:48:39.882Z,8.90
2023-02-20T02:51:13.096Z,8.90
2023-02-20T02:53:40.004Z,9.00
2023-02-20T02:56:21.947Z,9.00
2023-02-20T02:58:53.468Z,9.00
2023-02-20T03:01:21.841Z,9.00
2023-02-20T03:03:51.172Z,9.10
2023-02-20T03:06:25.471Z,9.10
2023-02-20T03:09:15.373Z,9.10
2023-02-20T03:11:42.940Z,9.10
2023-02-20T03:14:43.428Z,9.10
2023-02-20T03:17:38.041Z,9.00
2023-02-20T03:20:11.771Z,8.90
2023-02-20T03:22:47.903Z,8.90
2023-02-20T03:25:28.864Z,8.90
2023-02-20T03:28:05.941Z,8.80
2023-02-20T03:30:51.503Z,8.80
2023-02-20T03:33:47.237Z,8.80
2023-02-20T03:36:35.273Z,8.90
2023-02-20T03:39:26.690Z,8.80
2023-02-20T03:42:14.201Z,8.80
2023-02-20T03:44:41.989Z,8.80
2023-02-20T03:47:13.240Z,8.80
2023-02-20T03:49:42.923Z,8.80
2023-02-20T03:52:09.962Z,8.80
2023-02-20T03:54:37.083Z,8.70
2023-02-20T03:57:08.819Z,8.70
2023-02-20T03:59:57.215Z,8.70
2023-02-20T04:02:38.636Z,8.80
2023-02-20T04:05:10.147Z,8.80
2023-02-20T04:07:40.890Z,8.80
2023-02-20T04:10:14.378Z,8.80
2023-02-20T04:12:44.191Z,8.70
2023-02-20T04:15:12.270Z,8.60
2023-02-20T04:18:08.008Z,8.60
2023-02-20T04:20:34.916Z,8.60
2023-02-20T04:23:12.914Z,8.60
2023-02-20T04:25:44.738Z,8.50
2023-02-20T04:28:12.711Z,8.50
2023-02-20T04:30:39.744Z,8.50
2023-02-20T04:33:06.654Z,8.40
2023-02-20T04:35:41.179Z,8.30
2023-02-20T04:38:20.202Z,8.30
2023-02-20T04:40:46.996Z,8.20
2023-02-20T04:43:13.871Z,8.10
2023-02-20T04:45:40.629Z,8.10
2023-02-20T04:48:07.483Z,8.10
2023-02-20T04:50:34.987Z,8.10
2023-02-20T04:53:02.037Z,8.00
2023-02-20T04:55:29.079Z,8.00
2023-02-20T04:57:57.923Z,8.00
2023-02-20T05:00:26.031Z,8.00
2023-02-20T05:02:53.286Z,8.00
2023-02-20T05:05:25.933Z,8.10
2023-02-20T05:08:02.157Z,8.00
2023-02-20T05:10:30.367Z,8.00
2023-02-20T05:12:58.449Z,8.00
2023-02-20T05:15:26.440Z,8.00
2023-02-20T05:17:53.283Z,7.90
2023-02-20T05:20:20.268Z,8.00
2023-02-20T05:22:48.057Z,7.90
2023-02-20T05:25:15.561Z,7.90
2023-02-20T05:27:42.716Z,7.90
2023-02-20T05:30:10.516Z,7.90
2023-02-20T05:32:38.032Z,7.90
2023-02-20T05:35:05.047Z,7.80
2023-02-20T05:37:33.620Z,7.80
2023-02-20T05:40:00.600Z,7.90
2023-02-20T05:42:27.322Z,7.90
2023-02-20T05:44:54.083Z,7.80
2023-02-20T05:47:20.784Z,7.70
2023-02-20T05:49:47.607Z,7.80
2023-02-20T05:52:14.490Z,7.70
2023-02-20T05:54:42.035Z,7.70
2023-02-20T05:57:11.239Z,7.70
2023-02-20T05:59:37.988Z,7.70
2023-02-20T06:02:04.998Z,7.50
2023-02-20T06:04:31.833Z,7.40
2023-02-20T06:06:58.689Z,7.40
2023-02-20T06:09:25.513Z,7.50
2023-02-20T06:11:55.372Z,7.50
2023-02-20T06:14:24.400Z,7.50
2023-02-20T06:16:51.198Z,7.50
2023-02-20T06:19:22.396Z,7.50
2023-02-20T06:21:50.411Z,7.50
2023-02-20T06:24:18.061Z,7.50
2023-02-20T06:26:45.516Z,7.50
2023-02-20T06:29:14.303Z,7.50
2023-02-20T06:31:41.316Z,7.50
2023-02-20T06:34:09.067Z,7.50
2023-02-20T06:36:38.421Z,7.50
2023-02-20T06:39:07.446Z,7.50
2023-02-20T06:41:34.300Z,7.50
2023-02-20T06:44:01.094Z,7.40
2023-02-20T06:46:28.044Z,7.40
2023-02-20T06:48:58.901Z,7.40
2023-02-20T06:51:32.140Z,7.20
2023-02-20T06:53:59.911Z,7.20
2023-02-20T06:56:29.805Z,7.30
2023-02-20T06:58:57.143Z,7.30
2023-02-20T07:01:29.522Z,7.30
2023-02-20T07:03:57.687Z,7.30
2023-02-20T07:06:25.404Z,7.40
2023-02-20T07:08:52.853Z,7.40
2023-02-20T07:11:22.001Z,7.40
2023-02-20T07:13:49.067Z,7.40
2023-02-20T07:16:16.449Z,7.40
2023-02-20T07:18:43.394Z,7.40
2023-02-20T07:21:10.409Z,7.40
2023-02-20T07:23:37.238Z,7.50
2023-02-20T07:26:04.149Z,7.50
2023-02-20T07:28:30.916Z,7.50
2023-02-20T07:30:57.678Z,7.60
2023-02-20T07:33:24.486Z,7.70
2023-02-20T07:35:51.293Z,7.80
2023-02-20T07:38:18.059Z,7.90
2023-02-20T07:40:44.874Z,8.00
2023-02-20T07:43:11.685Z,8.20
2023-02-20T07:45:39.376Z,8.40
2023-02-20T07:48:06.458Z,8.30
2023-02-20T07:50:33.677Z,8.40
2023-02-20T07:53:00.525Z,8.60
2023-02-20T07:55:27.282Z,8.60
2023-02-20T07:57:58.358Z,8.60
2023-02-20T08:00:27.179Z,8.70
2023-02-20T08:02:54.051Z,8.60
2023-02-20T08:05:21.308Z,8.70
2023-02-20T08:07:49.771Z,8.70
2023-02-20T08:10:18.478Z,8.70
2023-02-20T08:12:46.222Z,8.80
2023-02-20T08:15:13.278Z,9.00
2023-02-20T08:17:47.035Z,9.10
2023-02-20T08:20:16.530Z,9.30
2023-02-20T08:22:48.133Z,9.40
2023-02-20T08:25:16.090Z,9.50
2023-02-20T08:27:44.819Z,9.50
2023-02-20T08:30:23.934Z,9.70
2023-02-20T08:32:55.533Z,9.90
2023-02-20T08:35:25.002Z,9.60
2023-02-20T08:37:52.116Z,9.70
2023-02-20T08:40:19.173Z,9.80
2023-02-20T08:42:49.366Z,9.90
2023-02-20T08:45:16.205Z,9.90
2023-02-20T08:47:42.996Z,10.10
2023-02-20T08:50:09.938Z,10.00
2023-02-20T08:52:36.683Z,10.00
2023-02-20T08:55:03.879Z,10.20
2023-02-20T08:57:30.688Z,10.40
2023-02-20T08:59:57.551Z,10.50
2023-02-20T09:02:26.272Z,10.70
2023-02-20T09:04:53.174Z,10.60
2023-02-20T09:07:20.251Z,10.70
2023-02-20T09:09:47.278Z,10.80
2023-02-20T09:12:14.359Z,11.00
2023-02-20T09:14:41.090Z,11.10
2023-02-20T09:17:07.924Z,11.30
2023-02-20T09:19:34.742Z,11.20
2023-02-20T09:22:02.322Z,11.00
2023-02-20T09:24:34.135Z,11.20
2023-02-20T09:27:06.457Z,11.40
2023-02-20T09:29:33.434Z,11.40
2023-02-20T09:32:00.420Z,11.40
2023-02-20T09:34:27.349Z,11.50
2023-02-20T09:36:55.537Z,11.40
2023-02-20T09:39:22.632Z,11.60
2023-02-20T09:41:55.194Z,11.90
2023-02-20T09:44:36.797Z,11.90
2023-02-20T09:47:19.833Z,11.90
2023-02-20T09:49:46.919Z,11.90
2023-02-20T09:52:16.033Z,11.90
2023-02-20T09:54:52.934Z,12.00
2023-02-20T09:57:26.836Z,12.10
2023-02-20T10:00:03.193Z,12.40
2023-02-20T10:02:37.268Z,12.60
2023-02-20T10:05:12.476Z,12.50
2023-02-20T10:07:42.079Z,12.40
2023-02-20T10:10:21.355Z,12.50
2023-02-20T10:13:13.579Z,12.50
2023-02-20T10:16:02.835Z,12.60
2023-02-20T10:18:41.881Z,12.50
2023-02-20T10:21:11.386Z,12.30
2023-02-20T10:23:56.778Z,12.40
2023-02-20T10:26:38.444Z,12.40
2023-02-20T10:29:29.109Z,12.30
2023-02-20T10:32:04.566Z,12.00
2023-02-20T10:34:34.848Z,12.30
2023-02-20T10:37:13.159Z,12.40
2023-02-20T10:39:48.443Z,12.50
2023-02-20T10:42:39.369Z,12.50
2023-02-20T10:45:12.719Z,12.60
2023-02-20T10:47:53.039Z,12.80
2023-02-20T10:50:31.062Z,12.60
2023-02-20T10:53:12.817Z,12.80
2023-02-20T10:55:58.803Z,12.80
2023-02-20T10:58:28.328Z,12.90
2023-02-20T11:00:58.865Z,13.00
2023-02-20T11:03:35.115Z,13.10
2023-02-20T11:06:04.090Z,13.10
2023-02-20T11:08:30.872Z,13.20
2023-02-20T11:11:06.185Z,13.30
2023-02-20T11:13:34.746Z,13.20
2023-02-20T11:16:02.138Z,13.40
2023-02-20T11:18:48.963Z,13.50
2023-02-20T11:21:34.871Z,13.50
2023-02-20T11:24:26.856Z,13.50
2023-02-20T11:27:09.360Z,13.50
2023-02-20T11:29:46.992Z,13.70
2023-02-20T11:32:35.176Z,13.70
2023-02-20T11:35:16.913Z,13.70
2023-02-20T11:37:55.208Z,13.70
2023-02-20T11:40:31.845Z,13.70
2023-02-20T11:43:15.853Z,13.70
2023-02-20T11:45:42.592Z,13.80
2023-02-20T11:48:15.282Z,13.60
2023-02-20T11:50:53.768Z,13.50
2023-02-20T11:53:28.297Z,13.70
2023-02-20T11:56:20.674Z,13.80
2023-02-20T11:58:47.670Z,13.90
2023-02-20T12:01:32.461Z,14.10
2023-02-20T12:04:00.508Z,14.00
2023-02-20T12:06:33.468Z,14.10
2023-02-20T12:09:03.008Z,14.10
2023-02-20T12:11:30.133Z,14.20
2023-02-20T12:13:59.803Z,14.10
2023-02-20T12:16:28.399Z,14.20
2023-02-20T12:19:08.248Z,14.20
2023-02-20T12:21:56.771Z,14.20
2023-02-20T12:24:45.066Z,14.20
2023-02-20T12:27:40.954Z,14.20
2023-02-20T12:30:13.800Z,14.00
2023-02-20T12:33:17.993Z,14.10
2023-02-20T12:36:08.052Z,14.00
2023-02-20T12:38:40.601Z,14.00
2023-02-20T12:41:49.861Z,14.30
2023-02-20T12:44:31.507Z,14.20
2023-02-20T12:47:27.650Z,14.50
2023-02-20T12:50:20.615Z,14.50
2023-02-20T12:53:06.053Z,14.60
2023-02-20T12:55:38.172Z,14.60
2023-02-20T12:58:32.316Z,14.70
2023-02-20T13:01:11.453Z,14.70
2023-02-20T13:03:56.290Z,14.80
2023-02-20T13:06:43.290Z,14.70
2023-02-20T13:09:20.274Z,14.70
2023-02-20T13:11:51.400Z,14.90
2023-02-20T13:14:38.418Z,14.80
2023-02-20T13:17:32.174Z,14.90
2023-02-20T13:20:12.766Z,15.00
2023-02-20T13:22:39.511Z,15.10
2023-02-20T13:25:31.449Z,15.20
2023-02-20T13:28:06.777Z,15.20
2023-02-20T13:30:34.348Z,15.20
2023-02-20T13:33:17.797Z,15.10
2023-02-20T13:35:53.766Z,15.10
2023-02-20T13:38:23.210Z,15.10
2023-02-20T13:40:55.952Z,15.30
2023-02-20T13:43:22.660Z,15.40
2023-02-20T13:46:14.673Z,15.40
2023-02-20T13:48:47.829Z,15.40
2023-02-20T13:51:14.637Z,15.50
2023-02-20T13:53:51.094Z,15.50
2023-02-20T13:56:24.928Z,15.60
2023-02-20T13:58:54.527Z,15.60
2023-02-20T14:01:21.368Z,15.60
2023-02-20T14:04:02.062Z,15.70
2023-02-20T14:06:29.455Z,15.60
2023-02-20T14:09:20.223Z,15.70
2023-02-20T14:11:47.089Z,15.70
2023-02-20T14:14:31.011Z,15.70
2023-02-20T14:17:07.122Z,15.80
2023-02-20T14:19:39.708Z,15.80
2023-02-20T14:22:28.452Z,15.90
2023-02-20T14:25:21.284Z,16.00
2023-02-20T14:27:54.676Z,16.00
2023-02-20T14:30:26.044Z,15.90
2023-02-20T14:32:58.511Z,15.90
2023-02-20T14:35:49.941Z,15.90
2023-02-20T14:38:24.162Z,15.90
2023-02-20T14:40:51.193Z,15.80
2023-02-20T14:43:21.035Z,15.90
2023-02-20T14:45:59.590Z,16.00
2023-02-20T14:48:38.410Z,16.10
2023-02-20T14:51:14.250Z,16.10
2023-02-20T14:53:43.001Z,16.10
2023-02-20T14:56:15.138Z,16.10
2023-02-20T14:58:42.326Z,16.20
2023-02-20T15:01:35.283Z,16.20
2023-02-20T15:04:12.340Z,16.20
2023-02-20T15:06:40.678Z,16.20
2023-02-20T15:09:21.419Z,16.30
2023-02-20T15:11:59.266Z,16.10
2023-02-20T15:14:30.482Z,16.10
2023-02-20T15:17:21.405Z,16.10
2023-02-20T15:19:48.890Z,16.10
2023-02-20T15:22:24.831Z,16.20
2023-02-20T15:24:51.989Z,16.10
2023-02-20T15:27:24.729Z,16.10
2023-02-20T15:30:27.217Z,16.10
2023-02-20T15:32:55.613Z,16.10
2023-02-20T15:35:26.365Z,16.00
2023-02-20T15:37:59.959Z,15.90
2023-02-20T15:40:30.440Z,15.90
2023-02-20T15:42:57.865Z,15.90
2023-02-20T15:45:30.209Z,15.80
2023-02-20T15:47:58.590Z,15.80
2023-02-20T15:50:28.789Z,15.60
2023-02-20T15:52:58.666Z,15.40
2023-02-20T15:55:25.710Z,15.30
2023-02-20T15:57:56.792Z,15.20
2023-02-20T16:00:24.290Z,15.10
2023-02-20T16:02:51.938Z,15.00
2023-02-20T16:05:19.026Z,15.10
2023-02-20T16:07:46.456Z,15.00
2023-02-20T16:10:16.620Z,15.00
2023-02-20T16:12:44.003Z,14.90
2023-02-20T16:15:16.407Z,14.90
2023-02-20T16:17:43.540Z,15.00
2023-02-20T16:20:22.553Z,15.00
2023-02-20T16:22:49.401Z,14.90
2023-02-20T16:25:18.965Z,14.70
2023-02-20T16:27:47.796Z,14.70
2023-02-20T16:30:32.599Z,14.70
2023-02-20T16:33:00.686Z,14.60
2023-02-20T16:35:27.473Z,14.60
2023-02-20T16:37:54.269Z,14.60
2023-02-20T16:40:21.073Z,14.50
2023-02-20T16:42:47.936Z,14.40
2023-02-20T16:45:17.680Z,14.20
2023-02-20T16:47:48.020Z,14.10
2023-02-20T16:50:19.989Z,14.00
2023-02-20T16:52:50.264Z,13.80
2023-02-20T16:55:22.739Z,13.70
2023-02-20T16:57:49.699Z,13.50
2023-02-20T17:00:22.220Z,13.50
2023-02-20T17:02:49.236Z,13.60
2023-02-20T17:05:16.323Z,13.60
2023-02-20T17:07:43.166Z,13.60
2023-02-20T17:10:10.203Z,13.60
2023-02-20T17:12:37.201Z,13.50
2023-02-20T17:15:05.990Z,13.40
2023-02-20T17:17:33.413Z,13.30
2023-02-20T17:20:00.784Z,13.20
2023-02-20T17:22:29.048Z,13.10
2023-02-20T17:24:57.176Z,13.10
2023-02-20T17:27:24.080Z,13.00
2023-02-20T17:29:50.973Z,12.90
2023-02-20T17:32:18.555Z,12.90
2023-02-20T17:34:45.361Z,12.90
2023-02-20T17:37:13.399Z,12.90
2023-02-20T17:39:40.258Z,12.90
2023-02-20T17:42:07.221Z,12.80
2023-02-20T17:44:34.179Z,12.80
2023-02-20T17:47:01.561Z,12.80
2023-02-20T17:49:28.875Z,12.70
2023-02-20T17:52:00.818Z,12.60
2023-02-20T17:54:31.983Z,12.40
2023-02-20T17:57:00.023Z,12.10
2023-02-20T17:59:27.534Z,12.00
2023-02-20T18:01:55.111Z,11.90
2023-02-20T18:04:22.459Z,12.00
2023-02-20T18:06:49.268Z,11.90
2023-02-20T18:09:18.467Z,11.90
2023-02-20T18:11:46.522Z,11.90
2023-02-20T18:14:14.316Z,11.90
2023-02-20T18:16:41.345Z,11.80
2023-02-20T18:19:10.589Z,11.80
2023-02-20T18:21:42.403Z,11.80
2023-02-20T18:24:10.052Z,11.80
2023-02-20T18:26:37.113Z,11.70
2023-02-20T18:29:04.342Z,11.70
2023-02-20T18:31:31.432Z,11.70
2023-02-20T18:33:58.313Z,11.60
2023-02-20T18:36:25.604Z,11.60
2023-02-20T18:38:52.578Z,11.60
2023-02-20T18:41:19.448Z,11.60
2023-02-20T18:43:46.755Z,11.50
2023-02-20T18:46:23.666Z,11.50
2023-02-20T18:48:50.523Z,11.40
2023-02-20T18:51:17.401Z,11.50
2023-02-20T18:53:47.868Z,11.50
2023-02-20T18:56:15.031Z,11.40
2023-02-20T18:58:42.068Z,11.40
2023-02-20T19:01:08.980Z,11.30
2023-02-20T19:03:35.807Z,11.20
2023-02-20T19:06:08.668Z,11.20
2023-02-20T19:08:35.559Z,11.20
2023-02-20T19:11:02.329Z,11.20
2023-02-20T19:13:29.132Z,11.20
2023-02-20T19:15:55.950Z,11.20
2023-02-20T19:18:22.756Z,11.10
2023-02-20T19:20:52.008Z,11.10
2023-02-20T19:23:18.990Z,11.00
2023-02-20T19:25:45.862Z,11.10
2023-02-20T19:28:12.867Z,11.00
2023-02-20T19:30:39.794Z,11.00
2023-02-20T19:33:06.776Z,10.90
2023-02-20T19:35:33.649Z,10.90
2023-02-20T19:38:00.526Z,10.80
2023-02-20T19:40:28.701Z,10.80
2023-02-20T19:42:56.904Z,10.80
2023-02-20T19:45:23.756Z,10.70
2023-02-20T19:47:50.740Z,10.70
2023-02-20T19:50:17.759Z,10.70
2023-02-20T19:52:44.665Z,10.60
2023-02-20T19:55:18.467Z,10.60
2023-02-20T19:57:45.404Z,10.60
2023-02-20T20:00:20.170Z,10.60
2023-02-20T20:02:52.167Z,10.50
2023-02-20T20:05:19.918Z,10.40
2023-02-20T20:07:47.530Z,10.40
2023-02-20T20:10:14.450Z,10.40
2023-02-20T20:12:47.188Z,10.40
2023-02-20T20:15:22.587Z,10.30
2023-02-20T20:17:52.085Z,10.20
2023-02-20T20:20:20.570Z,10.10
2023-02-20T20:22:55.400Z,10.10
2023-02-20T20:25:23.652Z,10.10
2023-02-20T20:27:51.979Z,10.00
2023-02-20T20:30:24.762Z,10.00
2023-02-20T20:32:52.132Z,10.00
2023-02-20T20:35:20.981Z,10.00
2023-02-20T20:37:48.085Z,10.00
2023-02-20T20:40:16.795Z,9.90
2023-02-20T20:42:44.186Z,9.90
2023-02-20T20:45:12.804Z,9.90
2023-02-20T20:47:40.509Z,9.80
2023-02-20T20:50:07.530Z,9.80
2023-02-20T20:52:34.542Z,9.80
2023-02-20T20:55:01.852Z,9.80
2023-02-20T20:57:31.139Z,9.80
2023-02-20T21:00:00.359Z,9.60
2023-02-20T21:02:28.905Z,9.60
2023-02-20T21:05:09.304Z,9.60
2023-02-20T21:07:37.669Z,9.60
2023-02-20T21:10:04.799Z,9.50
2023-02-20T21:12:31.611Z,9.50
2023-02-20T21:14:58.493Z,9.40
2023-02-20T21:17:25.712Z,9.30
2023-02-20T21:19:52.583Z,9.30
2023-02-20T21:22:19.439Z,9.30
2023-02-20T21:24:46.305Z,9.30
2023-02-20T21:27:13.141Z,9.30
2023-02-20T21:29:39.960Z,9.30
2023-02-20T21:32:06.938Z,9.20
2023-02-20T21:34:33.957Z,9.20
2023-02-20T21:37:00.765Z,9.20
2023-02-20T21:39:27.649Z,9.20
2023-02-20T21:42:12.716Z,9.20
2023-02-20T21:44:39.727Z,9.10
2023-02-20T21:47:09.805Z,9.00
2023-02-20T21:49:41.950Z,9.10
2023-02-20T21:52:08.680Z,9.00
2023-02-20T21:54:35.953Z,9.00
2023-02-20T21:57:02.744Z,9.00
2023-02-20T21:59:29.502Z,8.90
2023-02-20T22:01:56.625Z,8.90
2023-02-20T22:04:24.235Z,8.80
2023-02-20T22:07:09.968Z,8.70
2023-02-20T22:09:55.443Z,8.70
2023-02-20T22:12:41.948Z,8.70
2023-02-20T22:15:27.163Z,8.70
2023-02-20T22:18:12.716Z,8.70
2023-02-20T22:20:58.128Z,8.70
2023-02-20T22:23:43.688Z,8.70
2023-02-20T22:26:28.959Z,8.60
2023-02-20T22:29:14.480Z,8.60
2023-02-20T22:32:00.079Z,8.60
2023-02-20T22:34:45.448Z,8.60
2023-02-20T22:37:30.966Z,8.60
2023-02-20T22:40:16.391Z,8.60
2023-02-20T22:43:01.921Z,8.50
2023-02-20T22:45:47.233Z,8.50
2023-02-20T22:48:32.727Z,8.50
2023-02-20T22:51:18.296Z,8.50
2023-02-20T22:54:06.919Z,8.40
2023-02-20T22:56:52.501Z,8.40
2023-02-20T22:59:38.004Z,8.40
2023-02-20T23:02:23.462Z,8.40
2023-02-20T23:05:08.883Z,8.40
2023-02-20T23:07:54.407Z,8.40
2023-02-20T23:10:39.736Z,8.30
2023-02-20T23:13:25.197Z,8.30
2023-02-20T23:16:10.628Z,8.20
2023-02-20T23:18:56.180Z,8.30
2023-02-20T23:21:41.662Z,8.20
2023-02-20T23:24:27.198Z,8.20
2023-02-20T23:27:13.223Z,8.20
2023-02-20T23:29:58.716Z,8.20
2023-02-20T23:32:44.077Z,8.10
2023-02-20T23:35:30.006Z,8.20
2023-02-20T23:38:15.548Z,8.10
2023-02-20T23:41:01.122Z,8.10
2023-02-20T23:43:49.490Z,8.10
2023-02-20T23:46:34.973Z,8.00
2023-02-20T23:49:20.311Z,8.00
2023-02-20T23:52:15.881Z,8.00
2023-02-20T23:55:02.047Z,8.00
2023-02-20T23:57:47.564Z,7.70
